Time,TemperatureF,DewpointF,PressureIn,WindDirection,WindDirectionDegrees,WindSpeedMPH,WindSpeedGustMPH,Humidity,HourlyPrecipIn,Conditions,Clouds,dailyrainin,SoftwareType,DateUTC
2013-04-18 00:18:00,0.0,0.0,29.94,SW,225,2.2,2.2,0,0.00,,---,0.00,VWS V13.01,2013-04-18 07:18:00,
2013-04-18 00:23:00,0.0,0.0,29.94,SW,225,0.0,0.0,0,0.00,,---,0.00,VWS V13.01,2013-04-18 07:23:00,
2013-04-18 22:09:00,0.0,0.0,29.83,ENE,78,0.0,0.0,0,0.12,,---,0.12,VWS V13.01,2013-04-19 05:09:00,
2013-04-18 22:14:00,0.0,0.0,29.83,SE,129,0.0,2.7,0,0.12,,---,0.12,VWS V13.01,2013-04-19 05:14:00,
2013-04-18 22:15:00,0.0,0.0,29.83,SE,129,0.0,2.7,0,0.12,,---,0.12,VWS V13.01,2013-04-19 05:15:00,
2013-04-18 22:19:00,0.0,0.0,29.80,SE,129,0.0,0.0,0,0.12,,---,0.12,VWS V13.01,2013-04-19 05:19:00,
2013-04-18 22:20:00,0.0,0.0,29.80,SE,129,0.0,0.0,0,0.12,,---,0.12,VWS V13.01,2013-04-19 05:20:00,
2013-04-18 22:24:00,0.0,0.0,29.80,NE,54,0.0,0.0,0,0.12,,---,0.12,VWS V13.01,2013-04-19 05:24:00,
2013-04-18 22:25:00,0.0,0.0,29.80,NE,54,0.0,0.0,0,0.12,,---,0.12,VWS V13.01,2013-04-19 05:25:00,
2013-04-18 22:29:00,0.0,0.0,29.80,East,81,0.0,0.0,0,0.12,,---,0.12,VWS V13.01,2013-04-19 05:29:00,
2013-04-18 22:30:00,0.0,0.0,29.80,ENE,76,0.0,0.0,0,0.12,,---,0.12,VWS V13.01,2013-04-19 05:30:00,
2013-04-18 22:34:00,0.0,0.0,29.80,NNW,340,0.0,0.0,0,0.12,,---,0.12,VWS V13.01,2013-04-19 05:34:00,
2013-04-18 22:35:00,0.0,0.0,29.80,SE,131,2.7,2.7,0,0.12,,---,0.12,VWS V13.01,2013-04-19 05:35:00,
2013-04-18 22:40:00,0.0,0.0,29.80,SW,219,0.0,0.0,0,0.00,,---,0.00,VWS V13.01,2013-04-19 05:40:00,
2013-04-18 22:45:00,0.0,0.0,29.80,SSE,153,7.6,7.6,0,0.00,,---,0.00,VWS V13.01,2013-04-19 05:45:00,
2013-04-18 22:46:00,0.0,0.0,29.80,SSW,192,2.7,2.7,0,0.00,,---,0.00,VWS V13.01,2013-04-19 05:46:00,
2013-04-18 22:50:00,0.0,0.0,29.80,SSW,193,2.7,2.7,0,0.00,,---,0.00,VWS V13.01,2013-04-19 05:50:00,
2013-04-18 22:51:00,0.0,0.0,29.80,South,179,0.0,0.0,0,0.00,,---,0.00,VWS V13.01,2013-04-19 05:51:00,
2013-04-18 22:55:00,0.0,0.0,29.80,SW,233,2.2,2.2,0,0.00,,---,0.00,VWS V13.01,2013-04-19 05:55:00,
2013-04-18 22:56:00,0.0,0.0,29.80,SW,232,3.6,3.6,0,0.00,,---,0.00,VWS V13.01,2013-04-19 05:56:00,
2013-04-18 23:00:00,0.0,0.0,29.80,NNE,24,0.0,2.2,0,0.00,,---,0.00,VWS V13.01,2013-04-19 06:00:00,
2013-04-18 23:01:00,0.0,0.0,29.77,SW,229,2.7,3.6,0,0.00,,---,0.00,VWS V13.01,2013-04-19 06:01:00,
2013-04-18 23:02:00,0.0,0.0,29.77,SW,227,2.7,2.7,0,0.00,,---,0.00,VWS V13.01,2013-04-19 06:02:00,
2013-04-18 23:05:00,0.0,0.0,29.77,WSW,256,0.0,0.0,0,0.00,,---,0.00,VWS V13.01,2013-04-19 06:05:00,
2013-04-18 23:06:00,0.0,0.0,29.77,WSW,256,0.0,0.0,0,0.00,,---,0.00,VWS V13.01,2013-04-19 06:06:00,
2013-04-18 23:07:00,0.0,0.0,29.77,West,267,3.1,3.1,0,0.00,,---,0.00,VWS V13.01,2013-04-19 06:07:00,
2013-04-18 23:11:00,0.0,0.0,29.77,SW,229,3.6,3.6,0,0.00,,---,0.00,VWS V13.01,2013-04-19 06:11:00,
2013-04-18 23:12:00,0.0,0.0,29.77,West,268,4.0,4.0,0,0.00,,---,0.00,VWS V13.01,2013-04-19 06:12:00,
2013-04-18 23:15:00,0.0,0.0,29.77,SE,133,3.6,3.6,0,0.00,,---,0.00,VWS V13.01,2013-04-19 06:15:00,
2013-04-18 23:16:00,0.0,0.0,29.77,SSW,195,3.6,6.3,0,0.00,,---,0.00,VWS V13.01,2013-04-19 06:16:00,
2013-04-18 23:17:00,0.0,0.0,29.77,West,261,4.0,4.0,0,0.00,,---,0.00,VWS V13.01,2013-04-19 06:17:00,
2013-04-18 23:20:00,0.0,0.0,29.77,SW,218,3.1,5.8,0,0.00,,---,0.00,VWS V13.01,2013-04-19 06:20:00,
2013-04-18 23:21:00,0.0,0.0,29.77,East,84,2.7,4.9,0,0.00,,---,0.00,VWS V13.01,2013-04-19 06:21:00,
2013-04-18 23:22:00,0.0,0.0,29.77,SE,130,2.7,2.7,0,0.00,,---,0.00,VWS V13.01,2013-04-19 06:22:00,
2013-04-18 23:26:00,0.0,0.0,29.77,WSW,253,0.0,2.7,0,0.00,,---,0.00,VWS V13.01,2013-04-19 06:26:00,
2013-04-18 23:27:00,0.0,0.0,29.77,West,261,2.7,2.7,0,0.00,,---,0.00,VWS V13.01,2013-04-19 06:27:00,
2013-04-18 23:31:00,0.0,0.0,29.77,WSW,238,3.6,3.6,0,0.00,,---,0.04,VWS V13.01,2013-04-19 06:31:00,
2013-04-18 23:32:00,0.0,0.0,29.77,SW,215,3.6,3.6,0,0.00,,---,0.04,VWS V13.01,2013-04-19 06:32:00,
2013-04-18 23:36:00,0.0,0.0,29.77,SSW,195,0.0,2.7,0,0.00,,---,0.04,VWS V13.01,2013-04-19 06:36:00,
2013-04-18 23:37:00,0.0,0.0,29.77,NW,307,2.7,4.0,0,0.00,,---,0.04,VWS V13.01,2013-04-19 06:37:00,
2013-04-18 23:41:00,0.0,0.0,29.77,West,280,5.4,8.3,0,0.04,,---,0.04,VWS V13.01,2013-04-19 06:41:00,
2013-04-18 23:42:00,0.0,0.0,29.77,SSE,160,4.9,4.9,0,0.04,,---,0.04,VWS V13.01,2013-04-19 06:42:00,
2013-04-18 23:46:00,0.0,0.0,29.77,West,266,3.6,9.2,0,0.04,,---,0.04,VWS V13.01,2013-04-19 06:46:00,
2013-04-18 23:47:00,0.0,0.0,29.77,West,271,5.8,5.8,0,0.04,,---,0.04,VWS V13.01,2013-04-19 06:47:00,
2013-04-18 23:56:00,0.0,0.0,29.77,NW,319,3.1,4.9,0,0.04,,---,0.04,VWS V13.01,2013-04-19 06:56:00,
2013-04-18 23:57:00,0.0,0.0,29.77,WSW,254,0.0,4.0,0,0.04,,---,0.04,VWS V13.01,2013-04-19 06:57:00,